Time;durP1;ratioP1;P1;durP2;ratioP2;P2;SDS_P1;SDS_P2;PMS_P1;PMS_P2;Temp;Humidity;BMP_temperature;BMP_pressure;BME280_temperature;BME280_humidity;BME280_pressure;Samples;Min_cycle;Max_cycle;Signal;HPM_P1;HPM_P2
2023/10/30 00:00:45;;;;;;;13.87;1.70;;;12.20;99.90;;;;;;5022629;28;20218;-86
2023/10/30 00:03:14;;;;;;;13.23;1.60;;;12.10;99.90;;;;;;5026755;28;20186;-85
2023/10/30 00:05:40;;;;;;;9.30;1.50;;;12.20;99.90;;;;;;5023773;28;20241;-85
2023/10/30 00:08:06;;;;;;;10.07;1.57;;;12.30;99.90;;;;;;5024359;28;20185;-84
2023/10/30 00:10:33;;;;;;;9.60;1.50;;;12.40;99.90;;;;;;5008707;28;20182;-86
2023/10/30 00:12:59;;;;;;;6.77;1.27;;;12.50;99.90;;;;;;5030348;28;20189;-84
2023/10/30 00:15:25;;;;;;;8.83;0.90;;;12.50;99.90;;;;;;5037292;28;20175;-85
2023/10/30 00:17:51;;;;;;;14.70;1.60;;;12.50;99.90;;;;;;5030872;28;20181;-84
2023/10/30 00:20:17;;;;;;;7.83;1.60;;;12.60;99.90;;;;;;5032120;28;20208;-86
2023/10/30 00:22:43;;;;;;;9.83;1.40;;;12.60;99.90;;;;;;5029958;28;20183;-86
2023/10/30 00:25:08;;;;;;;8.73;1.53;;;12.60;99.90;;;;;;5019730;28;20312;-88
2023/10/30 00:27:34;;;;;;;6.17;1.60;;;12.70;99.90;;;;;;5012779;28;20288;-85
2023/10/30 00:30:00;;;;;;;13.37;1.60;;;12.60;99.90;;;;;;5014057;28;20181;-84
2023/10/30 00:32:26;;;;;;;8.77;1.50;;;12.40;99.90;;;;;;5013235;28;20225;-87
2023/10/30 00:34:51;;;;;;;9.93;1.67;;;12.30;99.90;;;;;;5012249;28;20175;-83
2023/10/30 00:37:17;;;;;;;11.30;1.47;;;12.60;99.90;;;;;;5018644;28;20176;-85
2023/10/30 00:39:43;;;;;;;8.30;1.37;;;12.50;99.90;;;;;;5021114;28;20700;-84
2023/10/30 00:42:09;;;;;;;8.93;1.30;;;12.50;99.90;;;;;;5023615;28;20178;-82
2023/10/30 00:44:37;;;;;;;9.13;1.00;;;12.50;99.90;;;;;;5036229;28;20171;-83
2023/10/30 00:47:04;;;;;;;7.03;1.20;;;12.70;99.90;;;;;;5018542;28;20175;-85
2023/10/30 00:49:30;;;;;;;8.13;1.30;;;12.50;99.90;;;;;;5011709;28;20186;-86
2023/10/30 00:51:55;;;;;;;10.50;1.10;;;12.40;99.90;;;;;;5009743;28;20178;-86
2023/10/30 00:54:21;;;;;;;6.20;0.90;;;12.40;99.90;;;;;;5012966;28;20190;-86
2023/10/30 00:56:47;;;;;;;12.07;1.30;;;12.40;99.90;;;;;;5013414;28;20667;-87
2023/10/30 00:59:12;;;;;;;3.80;0.80;;;12.10;99.90;;;;;;5013002;28;20297;-86
2023/10/30 01:01:38;;;;;;;7.23;1.10;;;12.30;99.90;;;;;;5004583;28;20219;-85
2023/10/30 01:04:05;;;;;;;5.27;0.63;;;12.40;99.90;;;;;;4987083;28;20178;-86
2023/10/30 01:06:31;;;;;;;3.50;0.87;;;12.40;99.90;;;;;;4994596;28;20258;-86
2023/10/30 01:08:56;;;;;;;7.63;1.10;;;12.50;99.90;;;;;;5010828;28;20209;-88
2023/10/30 01:11:22;;;;;;;4.27;1.00;;;12.40;99.90;;;;;;4997383;28;20175;-87
2023/10/30 01:13:47;;;;;;;7.77;1.20;;;12.40;99.90;;;;;;5009499;28;20167;-87
2023/10/30 01:16:13;;;;;;;4.33;0.97;;;12.50;99.90;;;;;;5012686;28;20183;-89
2023/10/30 01:18:39;;;;;;;7.23;0.67;;;12.40;99.90;;;;;;5010028;28;20266;-86
2023/10/30 01:21:12;;;;;;;6.77;1.10;;;12.50;99.90;;;;;;4997926;28;20183;-88
2023/10/30 01:23:37;;;;;;;5.13;1.00;;;12.40;99.90;;;;;;4997769;28;20701;-86
2023/10/30 01:26:04;;;;;;;5.53;0.87;;;12.40;99.90;;;;;;4995954;28;20179;-86
2023/10/30 01:28:29;;;;;;;6.07;1.10;;;12.60;99.90;;;;;;4995916;28;20184;-87
2023/10/30 01:30:55;;;;;;;5.10;1.03;;;12.60;99.90;;;;;;4996135;28;20242;-87
2023/10/30 01:33:21;;;;;;;5.40;0.80;;;12.50;99.90;;;;;;4975697;28;20176;-85
2023/10/30 01:35:47;;;;;;;6.57;0.93;;;12.60;99.90;;;;;;5008283;28;20229;-84
2023/10/30 01:38:13;;;;;;;5.40;0.80;;;12.60;99.90;;;;;;5023916;28;20205;-85
2023/10/30 01:40:47;;;;;;;6.57;0.80;;;12.50;99.90;;;;;;5010175;28;20214;-88
2023/10/30 01:43:14;;;;;;;3.07;0.60;;;12.30;99.90;;;;;;5018379;28;20200;-86
2023/10/30 01:45:41;;;;;;;6.10;0.80;;;12.40;99.90;;;;;;5016041;28;20221;-86
2023/10/30 01:48:07;;;;;;;5.97;0.93;;;12.40;99.90;;;;;;5015510;28;20174;-86
2023/10/30 01:50:33;;;;;;;8.40;1.10;;;12.40;99.90;;;;;;5017913;28;20201;-90
2023/10/30 01:52:59;;;;;;;3.97;0.80;;;12.40;99.90;;;;;;5002988;28;20181;-93
2023/10/30 01:55:25;;;;;;;3.13;0.73;;;12.40;99.90;;;;;;4999356;28;20182;-89
2023/10/30 01:57:51;;;;;;;7.93;0.83;;;12.40;99.90;;;;;;5016693;28;20198;-90
2023/10/30 02:00:16;;;;;;;6.40;1.10;;;12.40;99.90;;;;;;5017498;28;20218;-91
2023/10/30 02:02:43;;;;;;;9.93;0.97;;;12.50;99.90;;;;;;5015419;28;20246;-87
2023/10/30 02:05:09;;;;;;;9.87;1.40;;;12.40;99.90;;;;;;5015711;28;20265;-88
2023/10/30 02:07:36;;;;;;;5.03;0.77;;;12.40;99.90;;;;;;5015890;28;20174;-89
2023/10/30 02:10:03;;;;;;;7.80;1.30;;;12.50;99.90;;;;;;4997943;28;20178;-86
2023/10/30 02:12:29;;;;;;;7.17;0.83;;;12.50;99.90;;;;;;5002904;28;20182;-94
2023/10/30 02:14:55;;;;;;;8.50;0.90;;;12.60;99.90;;;;;;5021784;28;20175;-90
2023/10/30 02:17:21;;;;;;;4.13;0.77;;;12.50;99.90;;;;;;5020302;28;20167;-91
2023/10/30 02:19:47;;;;;;;7.40;0.90;;;14.80;99.90;;;;;;5018336;28;20283;-92
2023/10/30 02:22:12;;;;;;;6.57;1.00;;;12.50;99.90;;;;;;5017206;28;20194;-93
2023/10/30 02:24:38;;;;;;;4.30;0.83;;;12.50;99.90;;;;;;5016870;28;20201;-93
2023/10/30 02:27:04;;;;;;;9.13;1.00;;;12.50;99.90;;;;;;5015199;28;20664;-93
2023/10/30 02:29:29;;;;;;;7.67;0.97;;;12.50;99.90;;;;;;5016486;28;20352;-94
2023/10/30 02:31:55;;;;;;;5.73;0.67;;;12.40;99.90;;;;;;5014637;28;20203;-92
2023/10/30 02:34:21;;;;;;;12.60;0.90;;;12.50;99.90;;;;;;5027040;28;20178;-90
2023/10/30 02:36:46;;;;;;;2.80;0.57;;;12.40;99.90;;;;;;5036133;28;20166;-91
2023/10/30 02:39:12;;;;;;;4.40;0.70;;;12.30;99.90;;;;;;5032937;28;20210;-90
2023/10/30 02:41:38;;;;;;;7.13;1.03;;;;;;;;;;5031623;28;20213;-92
2023/10/30 02:44:05;;;;;;;7.37;0.93;;;12.40;99.90;;;;;;5019013;28;20178;-93
2023/10/30 02:46:30;;;;;;;5.00;0.80;;;12.30;99.90;;;;;;5019274;28;20177;-92
2023/10/30 02:48:56;;;;;;;4.97;1.03;;;;;;;;;;5022240;28;20254;-91
2023/10/30 02:51:22;;;;;;;8.23;0.80;;;11.90;99.90;;;;;;5022581;28;20604;-91
2023/10/30 02:53:48;;;;;;;5.60;0.93;;;12.30;99.90;;;;;;5024613;28;20175;-93
2023/10/30 02:56:13;;;;;;;5.77;0.67;;;12.30;99.90;;;;;;5026076;28;20178;-93
2023/10/30 02:58:39;;;;;;;7.20;0.83;;;12.40;99.90;;;;;;5024587;28;20187;-93
2023/10/30 03:01:05;;;;;;;5.03;1.00;;;12.30;99.90;;;;;;5015987;28;20242;-93
2023/10/30 03:03:31;;;;;;;9.27;0.97;;;12.30;99.90;;;;;;4998334;28;20189;-93
2023/10/30 03:05:57;;;;;;;6.50;0.93;;;12.30;99.90;;;;;;5017826;28;20186;-94
2023/10/30 03:08:25;;;;;;;7.33;0.70;;;12.20;99.90;;;;;;5016920;28;20174;-89
2023/10/30 03:10:51;;;;;;;4.83;0.67;;;12.10;99.90;;;;;;5015463;28;20167;-87
2023/10/30 03:13:17;;;;;;;4.87;0.83;;;12.00;99.90;;;;;;4993485;28;20183;-89
2023/10/30 03:15:46;;;;;;;6.27;0.63;;;11.90;99.90;;;;;;4994980;28;20175;-88
2023/10/30 03:18:12;;;;;;;4.73;0.97;;;;;;;;;;4996784;28;20202;-88
2023/10/30 03:20:38;;;;;;;6.03;0.93;;;;;;;;;;4997455;28;20269;-88
2023/10/30 03:23:05;;;;;;;8.80;1.03;;;12.00;99.90;;;;;;4995533;28;20281;-88
2023/10/30 03:25:30;;;;;;;6.70;1.23;;;11.90;99.90;;;;;;4994537;28;20183;-87
2023/10/30 03:27:56;;;;;;;7.10;0.77;;;;;;;;;;4977500;28;20175;-87
2023/10/30 03:30:22;;;;;;;7.63;1.00;;;11.90;99.90;;;;;;4978729;28;20179;-89
2023/10/30 03:32:47;;;;;;;11.77;1.40;;;11.90;99.90;;;;;;4996464;28;20186;-87
2023/10/30 03:35:13;;;;;;;7.17;0.97;;;11.80;99.90;;;;;;4996245;28;20175;-88
2023/10/30 03:37:39;;;;;;;8.23;0.90;;;11.80;99.90;;;;;;4996964;28;20177;-88
2023/10/30 03:40:05;;;;;;;8.90;0.97;;;11.80;99.90;;;;;;4997275;28;20246;-86
2023/10/30 03:42:30;;;;;;;10.17;1.10;;;11.90;99.90;;;;;;5007131;28;20175;-87
2023/10/30 03:44:56;;;;;;;4.50;0.80;;;11.80;99.90;;;;;;5018720;28;20202;-86
2023/10/30 03:47:21;;;;;;;6.20;0.73;;;11.90;99.90;;;;;;4976678;28;20216;-85
2023/10/30 03:49:47;;;;;;;4.93;0.70;;;11.80;99.90;;;;;;4994066;28;20217;-85
2023/10/30 03:52:13;;;;;;;7.43;1.07;;;11.80;99.90;;;;;;4976880;28;20210;-84
2023/10/30 03:54:38;;;;;;;7.50;0.90;;;11.70;99.90;;;;;;4994819;28;20196;-85
2023/10/30 03:57:06;;;;;;;6.83;0.90;;;11.90;99.90;;;;;;4993589;28;20178;-82
2023/10/30 03:59:31;;;;;;;7.67;0.87;;;11.80;99.90;;;;;;5016818;28;20218;-84
2023/10/30 04:01:57;;;;;;;4.67;0.80;;;11.90;99.90;;;;;;5017003;28;20229;-85
2023/10/30 04:04:23;;;;;;;11.63;1.10;;;11.70;99.90;;;;;;5009517;28;20186;-85
2023/10/30 04:06:49;;;;;;;6.47;1.20;;;11.70;99.90;;;;;;4994970;28;20673;-85
2023/10/30 04:09:14;;;;;;;15.70;1.23;;;11.70;99.90;;;;;;5001486;28;20289;-84
2023/10/30 04:11:40;;;;;;;13.63;1.30;;;11.60;99.90;;;;;;5030615;28;20178;-84
2023/10/30 04:14:05;;;;;;;11.97;1.20;;;11.60;99.90;;;;;;5028565;28;20175;-84
2023/10/30 04:16:31;;;;;;;9.73;1.17;;;11.80;99.90;;;;;;5017548;28;20187;-86
2023/10/30 04:18:57;;;;;;;11.17;1.27;;;11.50;99.90;;;;;;5016535;28;20171;-85
2023/10/30 04:21:23;;;;;;;6.60;0.83;;;11.70;99.90;;;;;;5033155;28;20178;-84
2023/10/30 04:23:48;;;;;;;12.87;1.30;;;11.80;99.90;;;;;;5014400;28;20713;-85
2023/10/30 04:26:14;;;;;;;11.90;1.10;;;11.70;99.90;;;;;;4997939;28;20232;-84
2023/10/30 04:28:40;;;;;;;11.53;1.17;;;11.60;99.90;;;;;;5000193;28;20511;-85
2023/10/30 04:31:06;;;;;;;9.77;1.37;;;11.80;99.90;;;;;;5012687;28;20390;-85
2023/10/30 04:33:32;;;;;;;9.07;1.53;;;11.80;99.90;;;;;;5000606;28;20311;-86
2023/10/30 04:36:02;;;;;;;8.90;1.00;;;11.60;99.90;;;;;;5003130;28;20661;-86
2023/10/30 04:38:30;;;;;;;11.70;1.33;;;11.50;99.90;;;;;;4976027;28;20226;-86
2023/10/30 04:41:05;;;;;;;10.40;1.30;;;11.80;99.90;;;;;;4993791;28;20225;-89
2023/10/30 04:43:32;;;;;;;11.77;1.57;;;11.70;99.90;;;;;;4978472;28;20190;-90
2023/10/30 04:45:58;;;;;;;10.13;1.00;;;11.70;99.90;;;;;;5007879;28;20177;-89
2023/10/30 04:48:24;;;;;;;12.47;1.60;;;12.00;99.90;;;;;;5032728;28;20186;-86
2023/10/30 04:50:49;;;;;;;9.07;1.50;;;11.90;99.90;;;;;;5045333;28;20166;-88
2023/10/30 04:53:16;;;;;;;8.30;1.30;;;12.10;99.90;;;;;;5023843;28;20532;-88
2023/10/30 04:55:42;;;;;;;12.20;1.30;;;12.10;99.90;;;;;;5037099;28;20185;-86
2023/10/30 04:58:07;;;;;;;10.80;1.60;;;12.10;99.90;;;;;;5009106;28;20175;-88
2023/10/30 05:00:35;;;;;;;6.43;1.03;;;12.00;99.90;;;;;;5027138;28;20206;-87
2023/10/30 05:03:01;;;;;;;7.17;1.27;;;12.10;99.90;;;;;;5037533;28;20194;-88
2023/10/30 05:05:27;;;;;;;12.60;1.60;;;11.90;99.90;;;;;;5051045;28;20174;-87
2023/10/30 05:07:52;;;;;;;11.97;1.47;;;12.00;99.90;;;;;;5042247;28;20186;-90
2023/10/30 05:10:18;;;;;;;10.20;1.10;;;12.10;99.90;;;;;;5003069;28;20174;-91
2023/10/30 05:12:43;;;;;;;9.27;1.30;;;12.10;99.90;;;;;;5033403;28;20188;-90
2023/10/30 05:15:09;;;;;;;9.83;1.40;;;12.10;99.90;;;;;;5030608;28;20174;-86
2023/10/30 05:17:37;;;;;;;8.70;1.20;;;12.20;99.90;;;;;;5016578;28;20707;-87
2023/10/30 05:20:04;;;;;;;7.90;1.10;;;12.10;99.90;;;;;;5018708;28;20214;-91
2023/10/30 05:22:32;;;;;;;11.37;1.50;;;12.20;99.90;;;;;;5020011;28;20173;-91
2023/10/30 05:24:57;;;;;;;8.47;1.37;;;12.20;99.90;;;;;;5029113;28;20175;-93
2023/10/30 05:27:25;;;;;;;9.73;1.83;;;12.20;99.90;;;;;;5021181;28;20166;-92
2023/10/30 05:29:51;;;;;;;12.20;1.87;;;12.20;99.90;;;;;;5040346;28;20218;-93
2023/10/30 05:32:17;;;;;;;11.07;1.60;;;12.20;99.90;;;;;;5040159;28;20178;-92
2023/10/30 05:34:42;;;;;;;12.40;1.47;;;12.40;99.90;;;;;;5021929;28;20171;-93
2023/10/30 05:37:09;;;;;;;15.03;1.90;;;12.20;99.90;;;;;;5019616;28;20167;-93
2023/10/30 05:39:35;;;;;;;12.43;1.43;;;12.20;99.90;;;;;;5020263;28;20494;-93
2023/10/30 05:42:01;;;;;;;11.23;1.20;;;12.10;99.90;;;;;;5003309;28;20163;-86
2023/10/30 05:44:30;;;;;;;10.37;1.40;;;12.10;99.90;;;;;;5019883;28;20198;-87
2023/10/30 05:46:56;;;;;;;8.47;1.33;;;12.10;99.90;;;;;;5007453;28;20263;-88
2023/10/30 05:49:22;;;;;;;10.90;1.43;;;12.10;99.90;;;;;;4996165;28;20262;-88
2023/10/30 05:51:48;;;;;;;11.10;1.17;;;12.00;99.90;;;;;;4995924;28;20198;-88
2023/10/30 05:54:13;;;;;;;8.47;1.40;;;11.90;99.90;;;;;;4996130;28;20190;-88
2023/10/30 05:56:39;;;;;;;9.23;1.33;;;11.90;99.90;;;;;;4995776;28;20171;-88
2023/10/30 05:59:06;;;;;;;11.80;1.47;;;11.50;99.90;;;;;;4977987;28;20210;-87
2023/10/30 06:01:31;;;;;;;9.17;1.50;;;11.80;99.90;;;;;;4995390;28;20238;-87
2023/10/30 06:03:57;;;;;;;13.50;1.77;;;11.70;99.90;;;;;;4995449;28;20172;-83
2023/10/30 06:06:23;;;;;;;11.70;1.77;;;11.70;99.90;;;;;;4978253;28;20190;-87
2023/10/30 06:08:49;;;;;;;8.03;1.23;;;11.70;99.90;;;;;;4995646;28;20172;-88
2023/10/30 06:11:15;;;;;;;12.40;1.40;;;11.70;99.90;;;;;;4996400;28;20176;-88
2023/10/30 06:13:41;;;;;;;12.77;1.23;;;11.90;99.90;;;;;;5003770;28;20264;-86
2023/10/30 06:16:12;;;;;;;8.40;1.30;;;11.90;99.90;;;;;;5015081;28;20186;-88
2023/10/30 06:18:38;;;;;;;8.30;1.40;;;11.80;99.90;;;;;;5013216;28;20174;-89
2023/10/30 06:21:07;;;;;;;6.93;1.00;;;11.70;99.90;;;;;;5001310;28;20712;-89
2023/10/30 06:23:34;;;;;;;8.10;1.50;;;11.70;99.90;;;;;;5018031;28;20167;-88
2023/10/30 06:25:59;;;;;;;9.23;1.10;;;11.80;99.90;;;;;;5018121;28;20222;-87
2023/10/30 06:28:25;;;;;;;9.83;1.27;;;11.80;99.90;;;;;;4995335;28;20175;-86
2023/10/30 06:30:50;;;;;;;10.03;1.13;;;11.70;99.90;;;;;;5016955;28;20270;-85
2023/10/30 06:33:16;;;;;;;9.30;1.40;;;11.80;99.90;;;;;;5010525;28;20230;-86
2023/10/30 06:35:42;;;;;;;7.07;1.30;;;11.80;99.90;;;;;;5009476;28;20187;-85
2023/10/30 06:38:07;;;;;;;9.60;1.30;;;11.70;99.90;;;;;;5007644;28;20653;-86
2023/10/30 06:40:33;;;;;;;12.90;1.37;;;11.80;99.90;;;;;;5013720;28;20210;-86
2023/10/30 06:42:58;;;;;;;10.60;0.97;;;12.00;99.90;;;;;;4976908;28;20698;-86
2023/10/30 06:45:24;;;;;;;8.47;1.60;;;12.10;99.90;;;;;;4994422;28;20220;-86
2023/10/30 06:47:50;;;;;;;10.60;1.10;;;11.90;99.90;;;;;;4994503;28;20175;-95
2023/10/30 06:50:15;;;;;;;8.57;0.93;;;11.90;99.90;;;;;;4990176;28;20543;-95
2023/10/30 06:52:41;;;;;;;9.57;1.03;;;11.90;99.90;;;;;;5006439;28;20183;-95
2023/10/30 06:55:07;;;;;;;6.63;1.00;;;11.90;99.90;;;;;;5001938;28;20634;-96
2023/10/30 06:57:32;;;;;;;6.80;1.27;;;12.00;99.90;;;;;;4981229;28;20243;-94
2023/10/30 06:59:58;;;;;;;8.63;1.20;;;12.00;99.90;;;;;;4996713;28;20569;-94
2023/10/30 07:02:24;;;;;;;6.83;0.97;;;12.00;99.90;;;;;;5008728;28;20287;-94
2023/10/30 07:04:50;;;;;;;11.33;1.67;;;;;;;;;;5013205;28;20183;-94
2023/10/30 07:07:15;;;;;;;10.87;1.50;;;12.00;99.90;;;;;;5013452;28;20187;-94
2023/10/30 07:09:41;;;;;;;9.87;1.37;;;11.90;99.90;;;;;;5012113;28;20243;-93
2023/10/30 07:12:07;;;;;;;6.43;1.23;;;11.80;99.90;;;;;;5012283;28;20175;-92
2023/10/30 07:14:33;;;;;;;12.10;1.60;;;11.90;99.90;;;;;;5008463;28;20179;-86
2023/10/30 07:16:59;;;;;;;8.07;1.30;;;11.90;99.90;;;;;;4978715;28;20641;-86
2023/10/30 07:19:24;;;;;;;13.63;1.60;;;11.80;99.90;;;;;;4976322;28;20270;-86
2023/10/30 07:21:50;;;;;;;13.40;2.53;;;11.90;99.90;;;;;;4994262;28;20203;-82
2023/10/30 07:24:16;;;;;;;13.57;1.57;;;11.90;99.90;;;;;;4998190;28;20195;-90
2023/10/30 07:26:43;;;;;;;10.17;1.27;;;11.90;99.90;;;;;;4989120;28;20197;-93
2023/10/30 07:29:10;;;;;;;7.30;1.20;;;12.00;99.90;;;;;;5014769;28;20170;-91
2023/10/30 07:31:36;;;;;;;9.47;1.47;;;11.90;99.90;;;;;;5033261;28;20215;-91
2023/10/30 07:34:01;;;;;;;14.40;2.23;;;12.00;99.90;;;;;;4991506;28;20194;-90
2023/10/30 07:36:27;;;;;;;8.10;1.53;;;12.10;99.90;;;;;;5022997;28;20187;-92
2023/10/30 07:38:52;;;;;;;10.10;1.57;;;12.20;99.90;;;;;;5017187;28;20640;-88
2023/10/30 07:41:18;;;;;;;9.60;1.70;;;11.90;99.90;;;;;;5016654;28;20201;-87
2023/10/30 07:43:44;;;;;;;8.93;1.30;;;12.10;99.90;;;;;;5014729;28;20269;-86
2023/10/30 07:46:13;;;;;;;10.87;1.80;;;12.20;99.90;;;;;;5016358;28;20229;-86
2023/10/30 07:48:39;;;;;;;11.50;1.80;;;12.10;99.90;;;;;;4991316;28;20185;-86
2023/10/30 07:51:04;;;;;;;10.27;1.60;;;12.30;99.90;;;;;;5014153;28;20534;-86
2023/10/30 07:53:31;;;;;;;9.37;1.57;;;12.50;99.90;;;;;;5016573;28;20572;-86
2023/10/30 07:55:57;;;;;;;12.10;1.80;;;12.50;99.90;;;;;;4984598;28;20186;-91
2023/10/30 07:58:23;;;;;;;11.20;1.60;;;12.60;99.90;;;;;;5004980;28;20190;-92
2023/10/30 08:00:49;;;;;;;7.40;1.40;;;12.80;99.90;;;;;;5009612;28;20697;-88
2023/10/30 08:03:14;;;;;;;11.82;1.95;;;12.70;99.90;;;;;;5006489;28;20182;-83
2023/10/30 08:05:43;;;;;;;12.53;2.00;;;12.90;99.90;;;;;;5008408;28;20366;-88
2023/10/30 08:08:09;;;;;;;15.60;1.42;;;13.10;99.90;;;;;;5011559;28;20171;-85
2023/10/30 08:10:34;;;;;;;11.97;1.50;;;13.30;99.90;;;;;;5030604;28;20194;-91
2023/10/30 08:13:00;;;;;;;13.70;2.22;;;13.10;99.90;;;;;;5019406;28;20198;-91
2023/10/30 08:15:25;;;;;;;14.18;2.05;;;13.50;99.90;;;;;;5018090;28;20178;-86
2023/10/30 08:17:52;;;;;;;9.05;1.75;;;13.80;99.90;;;;;;4999249;28;20183;-88
2023/10/30 08:20:18;;;;;;;14.80;1.63;;;13.80;99.90;;;;;;5011001;28;20224;-85
2023/10/30 08:22:44;;;;;;;9.18;1.80;;;13.60;99.90;;;;;;5028740;28;20280;-87
2023/10/30 08:25:09;;;;;;;18.40;2.58;;;14.20;99.90;;;;;;5009635;28;20185;-85
2023/10/30 08:27:35;;;;;;;14.32;1.92;;;;;;;;;;4993091;28;20175;-88
2023/10/30 08:30:01;;;;;;;14.50;1.95;;;13.40;99.90;;;;;;4996245;28;20179;-86
2023/10/30 08:32:27;;;;;;;10.13;2.08;;;13.60;99.90;;;;;;4995702;28;20175;-91
2023/10/30 08:34:54;;;;;;;16.20;1.77;;;13.50;99.90;;;;;;4999778;28;20179;-89
2023/10/30 08:37:20;;;;;;;16.02;1.92;;;13.60;99.90;;;;;;4996315;28;20642;-95
2023/10/30 08:39:46;;;;;;;12.52;1.92;;;13.50;99.90;;;;;;4998850;28;20320;-90
2023/10/30 08:42:11;;;;;;;17.33;1.58;;;13.70;99.90;;;;;;4996605;28;20690;-88
2023/10/30 08:44:37;;;;;;;14.68;1.75;;;13.80;99.90;;;;;;5001003;28;20162;-90
2023/10/30 08:47:02;;;;;;;13.52;2.17;;;13.80;99.90;;;;;;4998227;28;20183;-89
2023/10/30 08:49:28;;;;;;;6.78;1.08;;;14.10;99.90;;;;;;5018560;28;20194;-91
2023/10/30 08:51:54;;;;;;;13.27;1.67;;;14.20;99.90;;;;;;5009311;28;20163;-89
2023/10/30 08:54:20;;;;;;;5.78;1.40;;;14.50;99.90;;;;;;5035224;28;20163;-89
2023/10/30 08:56:46;;;;;;;8.18;1.70;;;;;;;;;;5015729;28;20164;-93
2023/10/30 08:59:12;;;;;;;10.02;1.42;;;14.60;99.90;;;;;;4998617;28;20186;-87
2023/10/30 09:01:38;;;;;;;7.43;1.42;;;14.70;99.90;;;;;;5013339;28;20238;-92
2023/10/30 09:04:04;;;;;;;11.80;1.33;;;14.80;99.90;;;;;;5569830;22;20359;-89
2023/10/30 09:06:32;;;;;;;4.85;1.08;;;14.80;99.90;;;;;;4984688;28;20174;-85
2023/10/30 09:08:57;;;;;;;13.95;1.55;;;15.00;99.90;;;;;;5015268;28;20209;-89
2023/10/30 09:11:23;;;;;;;11.68;1.52;;;14.80;99.90;;;;;;5020095;28;20225;-90
2023/10/30 09:13:49;;;;;;;9.10;1.55;;;15.00;99.90;;;;;;5021440;28;20185;-87
2023/10/30 09:16:14;;;;;;;10.93;1.35;;;14.80;99.90;;;;;;5007877;28;20230;-90
2023/10/30 09:18:40;;;;;;;9.88;1.60;;;14.70;99.90;;;;;;5032069;28;20183;-88
2023/10/30 09:21:06;;;;;;;9.23;1.35;;;14.90;99.90;;;;;;5028109;28;20221;-90
2023/10/30 09:23:31;;;;;;;9.98;1.25;;;14.90;99.90;;;;;;5015162;28;20199;-89
2023/10/30 09:25:57;;;;;;;11.18;1.42;;;14.80;99.90;;;;;;5017625;28;20238;-89
2023/10/30 09:28:22;;;;;;;8.80;1.65;;;14.80;99.90;;;;;;5028895;28;20159;-86
2023/10/30 09:30:49;;;;;;;6.18;1.50;;;15.00;99.90;;;;;;5027210;28;20246;-85
2023/10/30 09:33:15;;;;;;;12.35;1.67;;;14.80;99.90;;;;;;5025341;28;20190;-80
2023/10/30 09:35:42;;;;;;;5.88;1.13;;;14.80;99.90;;;;;;5063399;23;20170;-86
2023/10/30 09:38:08;;;;;;;7.13;1.30;;;14.80;99.90;;;;;;5018534;28;20191;-87
2023/10/30 09:40:34;;;;;;;13.25;2.28;;;15.00;99.90;;;;;;5014294;28;20206;-87
2023/10/30 09:43:01;;;;;;;16.75;2.08;;;15.20;99.90;;;;;;5025063;28;20210;-84
2023/10/30 09:45:27;;;;;;;9.10;1.60;;;15.10;99.90;;;;;;5024145;28;20183;-84
2023/10/30 09:47:56;;;;;;;16.73;2.20;;;15.20;99.90;;;;;;5020193;28;20177;-82
2023/10/30 09:50:24;;;;;;;18.35;2.42;;;15.20;99.90;;;;;;5005361;28;20217;-84
2023/10/30 09:52:51;;;;;;;13.10;2.42;;;15.30;99.90;;;;;;5012079;28;20202;-84
2023/10/30 09:55:18;;;;;;;14.30;2.70;;;15.50;99.90;;;;;;5037017;28;20230;-89
2023/10/30 09:57:47;;;;;;;21.85;2.00;;;15.70;99.90;;;;;;5038017;28;20186;-86
2023/10/30 10:00:13;;;;;;;12.05;1.98;;;15.70;99.90;;;;;;5087105;22;20219;-92
2023/10/30 10:02:41;;;;;;;15.90;2.15;;;15.60;99.90;;;;;;5040455;28;20189;-91
2023/10/30 10:05:08;;;;;;;14.10;2.25;;;15.70;99.90;;;;;;5037456;28;20194;-87
2023/10/30 10:07:34;;;;;;;32.42;2.67;;;15.60;99.90;;;;;;5035224;28;20208;-86
2023/10/30 10:10:02;;;;;;;21.17;2.30;;;16.00;99.90;;;;;;5030400;28;20206;-86
2023/10/30 10:12:33;;;;;;;17.60;2.47;;;15.70;99.90;;;;;;5032467;28;20677;-88
2023/10/30 10:14:59;;;;;;;18.75;2.80;;;15.60;99.90;;;;;;5026637;28;20193;-85
2023/10/30 10:17:25;;;;;;;19.75;2.60;;;15.70;99.90;;;;;;5024826;28;20229;-84
2023/10/30 10:19:51;;;;;;;18.65;2.55;;;15.70;99.90;;;;;;5028164;28;20610;-87
2023/10/30 10:22:32;;;;;;;15.20;2.38;;;15.90;99.90;;;;;;5022715;28;20183;-85
2023/10/30 10:24:59;;;;;;;22.35;2.63;;;15.90;99.90;;;;;;5024012;28;20187;-86
2023/10/30 10:27:25;;;;;;;16.70;2.35;;;16.10;99.90;;;;;;5023707;28;20237;-84
2023/10/30 10:29:55;;;;;;;13.02;2.13;;;16.20;99.90;;;;;;5024946;28;20163;-89
2023/10/30 10:32:28;;;;;;;12.52;2.10;;;16.30;1.00;;;;;;5029098;28;20167;-89
2023/10/30 10:34:57;;;;;;;15.77;2.42;;;16.10;1.00;;;;;;5010605;28;20175;-92
2023/10/30 10:37:23;;;;;;;15.77;2.55;;;16.10;1.00;;;;;;5023857;28;20166;-90
2023/10/30 10:39:53;;;;;;;10.55;2.15;;;16.20;99.90;;;;;;5003889;28;20238;-90
2023/10/30 10:42:27;;;;;;;17.15;2.13;;;16.10;99.90;;;;;;5010358;28;20175;-92
2023/10/30 10:44:55;;;;;;;15.45;2.45;;;16.20;40.70;;;;;;4984696;28;20182;-91
2023/10/30 10:47:22;;;;;;;18.08;2.40;;;16.20;76.30;;;;;;5007377;28;20171;-89
2023/10/30 10:49:48;;;;;;;12.32;2.38;;;16.50;99.90;;;;;;5018156;28;20174;-87
2023/10/30 10:52:19;;;;;;;16.42;2.13;;;16.40;14.40;;;;;;5005173;28;20190;-91
2023/10/30 10:55:03;;;;;;;17.20;2.28;;;16.50;1.00;;;;;;5002757;28;20163;-85
2023/10/30 10:57:41;;;;;;;17.55;1.85;;;16.50;99.90;;;;;;5023426;28;20201;-85
2023/10/30 11:00:10;;;;;;;22.48;2.95;;;16.90;99.90;;;;;;5018694;28;20332;-87
2023/10/30 11:02:39;;;;;;;17.75;2.35;;;16.90;99.90;;;;;;5033865;28;20317;-89
2023/10/30 11:05:06;;;;;;;13.68;2.15;;;17.10;99.90;;;;;;5026688;28;20190;-83
2023/10/30 11:08:19;;;;;;;16.52;2.33;;;17.50;1.00;;;;;;5029671;28;20164;-82
2023/10/30 11:11:08;;;;;;;24.92;2.88;;;18.20;99.90;;;;;;4950897;28;20259;-83
2023/10/30 11:14:08;;;;;;;13.52;2.10;;;19.70;16.30;;;;;;5006287;28;20166;-83
2023/10/30 11:17:05;;;;;;;11.60;1.90;;;21.90;16.20;;;;;;5019248;28;20201;-81
2023/10/30 11:19:38;;;;;;;20.83;2.95;;;22.20;1.00;;;;;;5023226;28;20198;-83
2023/10/30 11:22:03;;;;;;;17.23;2.67;;;24.00;1.00;;;;;;4993877;28;20222;-84
2023/10/30 11:24:39;;;;;;;17.33;2.72;;;24.70;1.00;;;;;;5028817;28;20182;-88
2023/10/30 11:27:26;;;;;;;15.88;2.50;;;24.30;99.90;;;;;;5029219;28;20177;-83
2023/10/30 11:29:54;;;;;;;12.75;2.65;;;23.50;1.00;;;;;;5034233;28;20170;-85
2023/10/30 11:32:20;;;;;;;17.55;2.38;;;22.10;1.00;;;;;;5032971;28;20253;-83
2023/10/30 11:34:46;;;;;;;14.15;2.42;;;21.20;1.00;;;;;;5032981;28;20178;-84
2023/10/30 11:37:14;;;;;;;21.27;3.00;;;19.60;1.00;;;;;;5027824;28;20194;-85
2023/10/30 11:39:45;;;;;;;15.18;2.30;;;22.00;99.90;;;;;;5023152;28;20186;-85
2023/10/30 11:42:29;;;;;;;18.13;2.42;;;22.70;99.90;;;;;;5020667;28;20178;-85
2023/10/30 11:45:18;;;;;;;19.50;3.05;;;22.90;1.00;;;;;;5023842;28;20642;-82
2023/10/30 11:47:47;;;;;;;7.70;1.60;;;22.80;1.00;;;;;;5016401;28;20178;-87
2023/10/30 11:50:13;;;;;;;15.23;3.30;;;24.30;1.00;;;;;;5005595;28;20190;-90
2023/10/30 11:52:44;;;;;;;11.25;2.58;;;25.80;99.90;;;;;;5023143;28;20170;-90
2023/10/30 11:55:11;;;;;;;13.13;2.42;;;26.70;99.90;;;;;;5023107;28;20170;-87
2023/10/30 11:57:40;;;;;;;12.65;3.65;;;25.10;4.00;;;;;;5023948;28;20256;-90
2023/10/30 12:00:06;;;;;;;19.35;3.38;;;26.50;1.00;;;;;;5022268;28;20226;-92
2023/10/30 12:02:39;;;;;;;12.18;2.40;;;24.70;1.00;;;;;;5022567;28;20174;-91
2023/10/30 12:05:06;;;;;;;17.55;2.97;;;25.20;1.00;;;;;;5023339;28;20642;-94
2023/10/30 12:07:32;;;;;;;14.68;2.35;;;25.80;1.00;;;;;;5007835;28;20171;-90
2023/10/30 12:10:03;;;;;;;13.20;2.40;;;23.60;1.00;;;;;;5025705;28;20182;-89
2023/10/30 12:12:30;;;;;;;12.75;3.03;;;24.50;99.90;;;;;;5024621;28;20170;-88
2023/10/30 12:15:00;;;;;;;14.30;2.70;;;24.70;1.00;;;;;;5023683;28;20676;-92
2023/10/30 12:17:28;;;;;;;21.27;3.08;;;24.20;99.90;;;;;;5007276;28;20249;-88
2023/10/30 12:19:55;;;;;;;14.95;2.60;;;23.60;1.00;;;;;;5009272;28;20210;-92
2023/10/30 12:22:21;;;;;;;14.60;3.38;;;25.60;1.00;;;;;;5012465;28;20177;-90
2023/10/30 12:24:49;;;;;;;18.42;3.22;;;26.00;1.00;;;;;;5024325;28;20238;-92
2023/10/30 12:27:33;;;;;;;19.50;2.60;;;26.50;1.00;;;;;;5004407;28;20313;-95
2023/10/30 12:30:17;;;;;;;11.65;2.90;;;24.10;76.30;;;;;;5027586;28;20215;-89
2023/10/30 12:32:57;;;;;;;16.90;2.53;;;22.10;9.30;;;;;;5031766;28;20657;-91
2023/10/30 12:35:23;;;;;;;11.40;2.05;;;;;;;;;;5020982;28;20226;-92
2023/10/30 12:37:51;;;;;;;17.10;2.58;;;19.10;1.00;;;;;;5035943;28;20179;-94
2023/10/30 12:40:17;;;;;;;23.02;3.10;;;18.80;1.00;;;;;;5014372;28;20206;-88
2023/10/30 12:42:44;;;;;;;15.07;2.83;;;18.40;1.00;;;;;;5028853;28;20165;-88
2023/10/30 12:45:12;;;;;;;10.50;2.53;;;18.10;99.90;;;;;;5009360;28;20182;-91